createdAt,value
2018-11-13T00:04:33.275Z,10.50
2018-11-13T00:09:36.460Z,10.10
2018-11-13T00:14:39.584Z,13.93
2018-11-13T00:19:42.960Z,9.57
2018-11-13T00:24:46.145Z,13.08
2018-11-13T00:29:49.276Z,9.73
2018-11-13T00:34:52.815Z,9.40
2018-11-13T00:39:55.941Z,9.20
2018-11-13T00:44:59.079Z,11.20
2018-11-13T00:50:02.872Z,11.40
2018-11-13T00:55:06.183Z,11.63
2018-11-13T01:00:14.057Z,13.93
2018-11-13T01:05:18.555Z,12.30
2018-11-13T01:10:21.993Z,11.43
2018-11-13T01:15:25.181Z,10.90
2018-11-13T01:20:28.636Z,10.97
2018-11-13T01:25:32.060Z,11.53
2018-11-13T01:30:35.318Z,12.27
2018-11-13T01:35:38.473Z,12.30
2018-11-13T01:40:41.793Z,13.03
2018-11-13T01:45:44.919Z,12.53
2018-11-13T01:50:48.043Z,12.10
2018-11-13T01:55:51.168Z,12.67
2018-11-13T02:00:54.410Z,13.20
2018-11-13T02:05:57.605Z,13.27
2018-11-13T02:11:00.736Z,18.33
2018-11-13T02:16:04.008Z,12.40
2018-11-13T02:21:07.189Z,12.60
2018-11-13T02:26:10.356Z,12.83
2018-11-13T02:31:13.557Z,12.20
2018-11-13T02:36:17.124Z,12.73
2018-11-13T02:41:22.250Z,14.67
2018-11-13T02:46:25.396Z,15.53
2018-11-13T02:51:28.537Z,17.60
2018-11-13T02:56:33.249Z,17.60
2018-11-13T03:01:36.405Z,17.13
2018-11-13T03:06:39.543Z,18.10
2018-11-13T03:11:42.679Z,20.43
2018-11-13T03:16:45.806Z,15.27
2018-11-13T03:21:48.974Z,13.43
2018-11-13T03:26:52.115Z,11.97
2018-11-13T03:31:55.225Z,10.63
2018-11-13T03:36:58.367Z,8.87
2018-11-13T03:42:01.552Z,6.83
2018-11-13T03:47:04.671Z,5.97
2018-11-13T03:52:07.865Z,3.87
2018-11-13T03:57:11.010Z,3.00
2018-11-13T04:02:14.153Z,2.67
2018-11-13T04:07:17.277Z,2.20
2018-11-13T04:12:20.429Z,3.43
2018-11-13T04:17:23.549Z,1.90
2018-11-13T04:22:26.694Z,1.83
2018-11-13T04:27:29.843Z,1.97
2018-11-13T04:32:32.985Z,2.90
2018-11-13T04:37:36.242Z,2.80
2018-11-13T04:42:39.771Z,2.90
2018-11-13T04:47:43.902Z,3.43
2018-11-13T04:52:47.098Z,3.30
2018-11-13T04:57:50.601Z,3.73
2018-11-13T05:02:53.839Z,4.00
2018-11-13T05:07:56.866Z,4.10
2018-11-13T05:13:00.004Z,4.10
2018-11-13T05:18:03.181Z,4.23
2018-11-13T05:23:06.366Z,4.27
2018-11-13T05:28:09.580Z,4.75
2018-11-13T05:33:12.758Z,4.97
2018-11-13T05:38:15.882Z,5.10
2018-11-13T05:43:19.001Z,3.43
2018-11-13T05:48:22.142Z,4.10
2018-11-13T05:53:25.272Z,3.20
2018-11-13T05:58:28.382Z,3.70
2018-11-13T06:03:31.525Z,4.47
2018-11-13T06:08:34.730Z,5.37
2018-11-13T06:13:37.802Z,6.50
2018-11-13T06:18:40.925Z,7.47
2018-11-13T06:23:44.087Z,8.07
2018-11-13T06:28:47.236Z,11.83
2018-11-13T06:33:50.375Z,12.47
2018-11-13T06:38:53.584Z,9.00
2018-11-13T06:43:56.679Z,9.37
2018-11-13T06:48:59.885Z,10.80
2018-11-13T06:54:39.789Z,10.27
2018-11-13T06:59:42.934Z,10.57
2018-11-13T07:04:46.143Z,10.33
2018-11-13T07:09:49.338Z,9.83
2018-11-13T07:14:52.519Z,9.13
2018-11-13T07:19:55.671Z,9.00
2018-11-13T07:24:58.839Z,8.23
2018-11-13T07:30:02.037Z,10.80
2018-11-13T07:35:06.341Z,7.70
2018-11-13T07:40:09.691Z,7.63
2018-11-13T07:45:13.920Z,7.07
2018-11-13T07:50:17.262Z,7.27
2018-11-13T07:55:20.389Z,7.97
2018-11-13T08:00:24.476Z,6.40
2018-11-13T08:05:27.632Z,7.27
2018-11-13T08:10:30.759Z,6.27
2018-11-13T08:15:33.889Z,4.13
2018-11-13T08:20:36.992Z,3.70
2018-11-13T08:25:40.175Z,3.20
2018-11-13T08:30:43.269Z,2.43
2018-11-13T08:35:46.488Z,1.90
2018-11-13T08:40:49.596Z,2.10
2018-11-13T08:45:52.757Z,1.50
2018-11-13T08:50:56.013Z,1.80
2018-11-13T08:55:59.093Z,2.00
2018-11-13T09:01:02.223Z,1.98
2018-11-13T09:06:05.493Z,2.30
2018-11-13T09:11:08.699Z,2.00
2018-11-13T09:16:11.834Z,1.60
2018-11-13T09:21:14.950Z,2.40
2018-11-13T09:26:18.292Z,2.80
2018-11-13T09:31:21.514Z,1.67
2018-11-13T09:36:24.575Z,1.40
2018-11-13T09:41:27.770Z,1.10
2018-11-13T09:46:30.926Z,1.23
2018-11-13T09:51:34.095Z,0.97
2018-11-13T09:56:37.320Z,1.03
2018-11-13T10:01:40.669Z,0.90
2018-11-13T10:06:43.546Z,1.50
2018-11-13T10:11:46.662Z,1.10
2018-11-13T10:16:49.789Z,0.87
2018-11-13T10:21:52.962Z,0.97
2018-11-13T10:26:56.161Z,0.80
2018-11-13T10:31:59.286Z,1.00
2018-11-13T10:37:02.489Z,0.70
2018-11-13T10:42:06.155Z,1.53
2018-11-13T10:47:09.327Z,1.00
2018-11-13T10:52:12.446Z,0.73
2018-11-13T10:57:15.546Z,1.00
2018-11-13T11:02:36.795Z,0.67
2018-11-13T11:07:39.926Z,0.73
2018-11-13T11:12:43.296Z,0.70
2018-11-13T11:17:46.363Z,0.60
2018-11-13T11:22:49.572Z,0.70
2018-11-13T11:27:52.654Z,0.40
2018-11-13T11:32:55.709Z,0.53
2018-11-13T11:37:58.808Z,0.50
2018-11-13T11:43:01.928Z,0.50
2018-11-13T11:48:05.144Z,0.50
2018-11-13T11:53:08.317Z,0.50
2018-11-13T11:58:11.425Z,0.50
2018-11-13T12:03:14.565Z,0.80
2018-11-13T12:08:17.695Z,0.70
2018-11-13T12:13:21.038Z,0.80
2018-11-13T12:18:24.202Z,0.90
2018-11-13T12:23:27.331Z,1.07
2018-11-13T12:28:30.517Z,0.63
2018-11-13T12:33:33.638Z,1.17
2018-11-13T12:38:36.777Z,0.97
2018-11-13T12:43:39.917Z,0.83
2018-11-13T12:48:43.406Z,0.70
2018-11-13T12:53:46.477Z,1.10
2018-11-13T12:58:49.625Z,1.10
2018-11-13T13:03:53.200Z,0.80
2018-11-13T13:08:56.341Z,1.10
2018-11-13T13:14:16.592Z,0.87
2018-11-13T13:19:19.732Z,1.00
2018-11-13T13:24:22.845Z,1.30
2018-11-13T13:29:25.989Z,1.00
2018-11-13T13:34:29.125Z,1.10
2018-11-13T13:39:32.222Z,1.33
2018-11-13T13:44:35.353Z,1.07
2018-11-13T13:49:38.499Z,1.07
2018-11-13T13:54:41.653Z,1.70
2018-11-13T13:59:44.902Z,1.10
2018-11-13T14:04:47.925Z,1.53
2018-11-13T14:09:51.018Z,1.20
2018-11-13T14:14:54.185Z,1.47
2018-11-13T14:19:57.282Z,1.57
2018-11-13T14:25:00.429Z,1.30
2018-11-13T14:30:03.951Z,1.40
2018-11-13T14:35:07.187Z,1.50
2018-11-13T14:40:24.617Z,1.70
2018-11-13T14:45:28.149Z,1.50
2018-11-13T14:50:32.676Z,1.40
2018-11-13T14:55:37.204Z,1.50
2018-11-13T15:00:40.626Z,1.83
2018-11-13T15:05:43.793Z,1.83
2018-11-13T15:10:53.611Z,1.90
2018-11-13T15:15:56.762Z,1.50
2018-11-13T15:20:59.906Z,1.60
2018-11-13T15:26:03.080Z,1.40
2018-11-13T15:31:06.310Z,1.90
2018-11-13T15:36:09.386Z,1.63
2018-11-13T15:41:12.497Z,1.90
2018-11-13T15:46:15.635Z,3.33
2018-11-13T15:51:18.798Z,2.60
2018-11-13T15:56:22.030Z,1.60
2018-11-13T16:01:25.150Z,1.77
2018-11-13T16:06:28.326Z,1.70
2018-11-13T16:11:31.446Z,1.50
2018-11-13T16:16:34.561Z,1.90
2018-11-13T16:21:37.741Z,1.73
2018-11-13T16:26:40.850Z,1.80
2018-11-13T16:31:43.993Z,1.90
2018-11-13T16:36:47.215Z,2.13
2018-11-13T16:41:50.311Z,2.20
2018-11-13T16:46:53.438Z,3.47
2018-11-13T16:51:56.575Z,2.10
2018-11-13T16:57:00.196Z,2.33
2018-11-13T17:02:03.301Z,1.90
2018-11-13T17:07:06.638Z,1.97
2018-11-13T17:12:09.748Z,3.27
2018-11-13T17:17:13.112Z,2.98
2018-11-13T17:22:16.526Z,2.97
2018-11-13T17:27:20.227Z,2.67
2018-11-13T17:32:23.610Z,3.60
2018-11-13T17:37:27.547Z,2.87
2018-11-13T17:42:30.367Z,2.43
2018-11-13T17:47:33.688Z,4.20
2018-11-13T17:52:36.856Z,3.35
2018-11-13T17:57:40.389Z,2.70
2018-11-13T18:02:45.005Z,2.57
2018-11-13T18:07:48.561Z,3.85
2018-11-13T18:12:51.656Z,1.93
2018-11-13T18:17:54.905Z,3.13
2018-11-13T18:22:58.052Z,3.00
2018-11-13T18:28:02.246Z,3.23
2018-11-13T18:33:06.366Z,3.97
2018-11-13T18:38:11.283Z,6.20
2018-11-13T18:43:14.424Z,3.87
2018-11-13T18:48:17.549Z,4.15
2018-11-13T18:53:20.737Z,3.30
2018-11-13T18:58:23.838Z,3.40
2018-11-13T19:03:26.973Z,3.23
2018-11-13T19:08:30.130Z,3.57
2018-11-13T19:13:33.295Z,3.57
2018-11-13T19:18:36.457Z,4.03
2018-11-13T19:23:39.678Z,3.37
2018-11-13T19:28:42.807Z,3.57
2018-11-13T19:33:45.972Z,3.43
2018-11-13T19:38:49.171Z,4.50
2018-11-13T19:43:52.331Z,4.83
2018-11-13T19:48:55.377Z,6.30
2018-11-13T19:53:58.572Z,4.10
2018-11-13T19:59:01.772Z,4.17
2018-11-13T20:04:05.361Z,4.20
2018-11-13T20:09:08.489Z,3.60
2018-11-13T20:14:11.658Z,4.77
2018-11-13T20:19:14.797Z,5.20
2018-11-13T20:24:17.954Z,5.57
2018-11-13T20:29:21.117Z,5.90
2018-11-13T20:34:24.233Z,4.67
2018-11-13T20:39:27.357Z,4.63
2018-11-13T20:44:30.514Z,4.67
2018-11-13T20:49:33.637Z,4.60
2018-11-13T20:54:36.781Z,4.60
2018-11-13T20:59:39.904Z,5.30
2018-11-13T21:04:43.087Z,5.60
2018-11-13T21:09:46.307Z,5.50
2018-11-13T21:14:49.397Z,5.97
2018-11-13T21:19:52.580Z,6.60
2018-11-13T21:24:55.721Z,6.37
2018-11-13T21:29:58.934Z,5.93
2018-11-13T21:35:02.027Z,5.13
2018-11-13T21:40:05.518Z,5.83
2018-11-13T21:45:09.386Z,6.07
2018-11-13T21:50:14.138Z,6.77
2018-11-13T21:55:18.887Z,6.57
2018-11-13T22:00:24.015Z,6.73
2018-11-13T22:05:28.271Z,6.63
2018-11-13T22:10:31.409Z,6.00
2018-11-13T22:15:34.956Z,5.73
2018-11-13T22:20:43.617Z,7.07
2018-11-13T22:25:41.260Z,6.30
2018-11-13T22:30:44.603Z,6.33
2018-11-13T22:35:47.726Z,8.83
2018-11-13T22:40:50.854Z,5.80
2018-11-13T22:45:54.055Z,7.65
2018-11-13T22:50:57.607Z,6.97
2018-11-13T22:56:00.415Z,6.50
2018-11-13T23:01:04.001Z,6.53
2018-11-13T23:06:06.763Z,6.30
2018-11-13T23:11:13.812Z,6.10
2018-11-13T23:16:17.095Z,6.00
2018-11-13T23:21:21.316Z,8.20
2018-11-13T23:26:24.515Z,6.93
2018-11-13T23:31:27.640Z,5.60
2018-11-13T23:36:30.886Z,5.60
2018-11-13T23:41:34.046Z,5.37
2018-11-13T23:46:37.217Z,7.30
2018-11-13T23:51:40.401Z,5.30
2018-11-13T23:56:43.541Z,5.63
